TOM6VD LSGG-EGPH
Flight info
| Callsign | TOM6VD |
|---|---|
| Flight time | 1h 50m |
| Altitude | 38000 |
| Route | SIROD Z124 IBABA DCT TUTAX DCT OBURO DCT OKRIX DCT CLM DCT KOPOR DCT VESAN DCT RATUK DCT SOVAT L613 LEHOC DCT INPIP |
| Aircraft | B752/M-SDE3FGHIM3RWXY/LB1 |
Departure
| Time | 2026-04-20 21:26 |
|---|---|
| Airport | Geneva International Airport (LSGG) |
Arrival
| Time | 2026-04-20 23:16 |
|---|---|
| Airport | Edinburgh Airport (EGPH) |
| Time | Latitude | Longitude | Altitude | Speed | Heading |
|---|---|---|---|---|---|
| 2026-04-20 21:00 | 46.23127 | 6.10704 | 1394 ft | 0 kts | 134° |
| 2026-04-20 21:16 | 46.23128 | 6.10702 | 1393 ft | 1 kts | 134° |
| 2026-04-20 21:16 | 46.23140 | 6.10689 | 1393 ft | 2 kts | 156° |
| 2026-04-20 21:16 | 46.23154 | 6.10683 | 1393 ft | 2 kts | 172° |
| 2026-04-20 21:16 | 46.23169 | 6.10683 | 1392 ft | 2 kts | 190° |
| 2026-04-20 21:17 | 46.23183 | 6.10689 | 1392 ft | 2 kts | 207° |
| 2026-04-20 21:17 | 46.23196 | 6.10702 | 1392 ft | 2 kts | 225° |
| 2026-04-20 21:17 | 46.23206 | 6.10717 | 1392 ft | 2 kts | 226° |
| 2026-04-20 21:17 | 46.23209 | 6.10721 | 1391 ft | 0 kts | 225° |
| 2026-04-20 21:20 | 46.23193 | 6.10694 | 1392 ft | 3 kts | 242° |
| 2026-04-20 21:20 | 46.23194 | 6.10664 | 1391 ft | 3 kts | 294° |
| 2026-04-20 21:20 | 46.23208 | 6.10631 | 1390 ft | 7 kts | 306° |
| 2026-04-20 21:20 | 46.23265 | 6.10546 | 1388 ft | 9 kts | 316° |
| 2026-04-20 21:21 | 46.23287 | 6.10502 | 1386 ft | 5 kts | 277° |
| 2026-04-20 21:21 | 46.23279 | 6.10468 | 1386 ft | 4 kts | 231° |
| 2026-04-20 21:21 | 46.23255 | 6.10431 | 1386 ft | 5 kts | 226° |
| 2026-04-20 21:21 | 46.23229 | 6.10391 | 1385 ft | 5 kts | 226° |
| 2026-04-20 21:22 | 46.23193 | 6.10337 | 1385 ft | 9 kts | 226° |
| 2026-04-20 21:22 | 46.23151 | 6.10274 | 1387 ft | 7 kts | 226° |
| 2026-04-20 21:22 | 46.23105 | 6.10200 | 1390 ft | 16 kts | 227° |
| 2026-04-20 21:22 | 46.22994 | 6.10036 | 1392 ft | 25 kts | 225° |
| 2026-04-20 21:23 | 46.22876 | 6.09863 | 1395 ft | 22 kts | 225° |
| 2026-04-20 21:23 | 46.22780 | 6.09721 | 1397 ft | 17 kts | 225° |
| 2026-04-20 21:23 | 46.22698 | 6.09601 | 1397 ft | 15 kts | 225° |
| 2026-04-20 21:23 | 46.22631 | 6.09504 | 1399 ft | 13 kts | 225° |
| 2026-04-20 21:24 | 46.22577 | 6.09419 | 1402 ft | 9 kts | 235° |
| 2026-04-20 21:24 | 46.22556 | 6.09346 | 1403 ft | 8 kts | 262° |
| 2026-04-20 21:24 | 46.22552 | 6.09242 | 1405 ft | 11 kts | 281° |
| 2026-04-20 21:24 | 46.22583 | 6.09177 | 1408 ft | 6 kts | 331° |
| 2026-04-20 21:25 | 46.22630 | 6.09177 | 1408 ft | 7 kts | 29° |
| 2026-04-20 21:25 | 46.22668 | 6.09226 | 1407 ft | 13 kts | 44° |
| 2026-04-20 21:25 | 46.22910 | 6.09579 | 1400 ft | 88 kts | 45° |
| 2026-04-20 21:25 | 46.23520 | 6.10472 | 1385 ft | 159 kts | 45° |
| 2026-04-20 21:26 | 46.24355 | 6.11690 | 1860 ft | 183 kts | 45° |
| 2026-04-20 21:26 | 46.25196 | 6.12927 | 3094 ft | 170 kts | 46° |
| 2026-04-20 21:26 | 46.26033 | 6.14446 | 3186 ft | 215 kts | 52° |
| 2026-04-20 21:26 | 46.26989 | 6.16217 | 3778 ft | 236 kts | 50° |
| 2026-04-20 21:27 | 46.28094 | 6.18099 | 4376 ft | 257 kts | 48° |
| 2026-04-20 21:27 | 46.29288 | 6.20014 | 5362 ft | 261 kts | 47° |
| 2026-04-20 21:27 | 46.30512 | 6.21944 | 6301 ft | 267 kts | 46° |
| 2026-04-20 21:27 | 46.31811 | 6.23907 | 7131 ft | 277 kts | 45° |
| 2026-04-20 21:28 | 46.33147 | 6.25920 | 8085 ft | 281 kts | 45° |
| 2026-04-20 21:28 | 46.34574 | 6.27848 | 8980 ft | 285 kts | 31° |
| 2026-04-20 21:28 | 46.36400 | 6.28852 | 9849 ft | 286 kts | 4° |
| 2026-04-20 21:28 | 46.38374 | 6.28629 | 10656 ft | 292 kts | 346° |
| 2026-04-20 21:29 | 46.40434 | 6.27980 | 11094 ft | 312 kts | 346° |
| 2026-04-20 21:29 | 46.42604 | 6.27277 | 11529 ft | 330 kts | 345° |
| 2026-04-20 21:29 | 46.44881 | 6.26508 | 11990 ft | 347 kts | 345° |
| 2026-04-20 21:29 | 46.47241 | 6.25700 | 12873 ft | 349 kts | 344° |
| 2026-04-20 21:30 | 46.49606 | 6.24878 | 13713 ft | 353 kts | 343° |
| 2026-04-20 21:30 | 46.51895 | 6.23639 | 14584 ft | 351 kts | 328° |
| 2026-04-20 21:30 | 46.53811 | 6.21524 | 15385 ft | 351 kts | 312° |
| 2026-04-20 21:30 | 46.55231 | 6.18652 | 16178 ft | 353 kts | 296° |
| 2026-04-20 21:31 | 46.56180 | 6.15392 | 16939 ft | 355 kts | 294° |
| 2026-04-20 21:31 | 46.57355 | 6.12218 | 17691 ft | 358 kts | 301° |
| 2026-04-20 21:31 | 46.58726 | 6.09185 | 18475 ft | 360 kts | 304° |
| 2026-04-20 21:31 | 46.60189 | 6.06238 | 19241 ft | 363 kts | 306° |
| 2026-04-20 21:32 | 46.61705 | 6.03343 | 19982 ft | 365 kts | 307° |
| 2026-04-20 21:32 | 46.63279 | 6.00437 | 20641 ft | 369 kts | 307° |
| 2026-04-20 21:32 | 46.64894 | 5.97512 | 21353 ft | 372 kts | 307° |
| 2026-04-20 21:32 | 46.66519 | 5.94605 | 22030 ft | 374 kts | 308° |
| 2026-04-20 21:33 | 46.68169 | 5.91673 | 22746 ft | 375 kts | 308° |
| 2026-04-20 21:33 | 46.69827 | 5.88734 | 23346 ft | 378 kts | 308° |
| 2026-04-20 21:33 | 46.71487 | 5.85797 | 23982 ft | 380 kts | 308° |
| 2026-04-20 21:33 | 46.73171 | 5.82819 | 24499 ft | 384 kts | 308° |
| 2026-04-20 21:34 | 46.74875 | 5.79805 | 25102 ft | 386 kts | 308° |
| 2026-04-20 21:34 | 46.76575 | 5.76797 | 25664 ft | 387 kts | 308° |
| 2026-04-20 21:34 | 46.78291 | 5.73759 | 26189 ft | 391 kts | 308° |
| 2026-04-20 21:34 | 46.80013 | 5.70710 | 26780 ft | 391 kts | 307° |
| 2026-04-20 21:35 | 46.81757 | 5.67614 | 27231 ft | 395 kts | 308° |
| 2026-04-20 21:35 | 46.83497 | 5.64524 | 27672 ft | 398 kts | 308° |
| 2026-04-20 21:35 | 46.85244 | 5.61419 | 28206 ft | 399 kts | 308° |
| 2026-04-20 21:35 | 46.87011 | 5.58274 | 28615 ft | 403 kts | 308° |
| 2026-04-20 21:36 | 46.88804 | 5.55082 | 29099 ft | 404 kts | 308° |
| 2026-04-20 21:36 | 46.90584 | 5.51906 | 29548 ft | 406 kts | 308° |
| 2026-04-20 21:36 | 46.92365 | 5.48725 | 29877 ft | 410 kts | 308° |
| 2026-04-20 21:36 | 46.94151 | 5.45533 | 30358 ft | 410 kts | 308° |
| 2026-04-20 21:37 | 46.95974 | 5.42270 | 30745 ft | 412 kts | 308° |
| 2026-04-20 21:37 | 46.97788 | 5.39019 | 31005 ft | 416 kts | 308° |
| 2026-04-20 21:37 | 46.99609 | 5.35752 | 31387 ft | 418 kts | 308° |
| 2026-04-20 21:37 | 47.01473 | 5.32402 | 31664 ft | 421 kts | 307° |
| 2026-04-20 21:38 | 47.03299 | 5.29120 | 32180 ft | 419 kts | 307° |
| 2026-04-20 21:38 | 47.05132 | 5.25819 | 32542 ft | 420 kts | 307° |
| 2026-04-20 21:38 | 47.06982 | 5.22484 | 33038 ft | 418 kts | 307° |
| 2026-04-20 21:38 | 47.08801 | 5.19200 | 33402 ft | 418 kts | 307° |
| 2026-04-20 21:39 | 47.10638 | 5.15880 | 33823 ft | 417 kts | 307° |
| 2026-04-20 21:39 | 47.12451 | 5.12600 | 34158 ft | 417 kts | 307° |
| 2026-04-20 21:39 | 47.14281 | 5.09284 | 34527 ft | 417 kts | 307° |
| 2026-04-20 21:39 | 47.16090 | 5.06002 | 34853 ft | 416 kts | 307° |
| 2026-04-20 21:40 | 47.17919 | 5.02680 | 35068 ft | 418 kts | 307° |
| 2026-04-20 21:40 | 47.19730 | 4.99390 | 35442 ft | 415 kts | 307° |
| 2026-04-20 21:40 | 47.21539 | 4.96096 | 35708 ft | 416 kts | 307° |
| 2026-04-20 21:40 | 47.23353 | 4.92788 | 35914 ft | 417 kts | 307° |
| 2026-04-20 21:41 | 47.25172 | 4.89470 | 36175 ft | 416 kts | 307° |
| 2026-04-20 21:41 | 47.26973 | 4.86178 | 36369 ft | 417 kts | 307° |
| 2026-04-20 21:41 | 47.28786 | 4.82862 | 36620 ft | 417 kts | 307° |
| 2026-04-20 21:41 | 47.30603 | 4.79533 | 36861 ft | 418 kts | 307° |
| 2026-04-20 21:42 | 47.32421 | 4.76200 | 37063 ft | 418 kts | 307° |
| 2026-04-20 21:42 | 47.34242 | 4.72857 | 37298 ft | 419 kts | 307° |
| 2026-04-20 21:42 | 47.36058 | 4.69519 | 37536 ft | 419 kts | 307° |
| 2026-04-20 21:42 | 47.37880 | 4.66166 | 37755 ft | 419 kts | 307° |
| 2026-04-20 21:43 | 47.39695 | 4.62821 | 37974 ft | 418 kts | 307° |
| 2026-04-20 21:43 | 47.43285 | 4.56193 | 38046 ft | 416 kts | 307° |
| 2026-04-20 21:44 | 47.46909 | 4.49486 | 38046 ft | 418 kts | 307° |
| 2026-04-20 21:44 | 47.50503 | 4.42818 | 38055 ft | 419 kts | 307° |
| 2026-04-20 21:45 | 47.54110 | 4.36109 | 38129 ft | 418 kts | 307° |
| 2026-04-20 21:45 | 47.57754 | 4.29387 | 38062 ft | 418 kts | 308° |
| 2026-04-20 21:46 | 47.61433 | 4.22659 | 38094 ft | 421 kts | 307° |
| 2026-04-20 21:46 | 47.65054 | 4.15932 | 38071 ft | 419 kts | 307° |
| 2026-04-20 21:47 | 47.68663 | 4.09177 | 38046 ft | 420 kts | 307° |
| 2026-04-20 21:47 | 47.72284 | 4.02370 | 38114 ft | 420 kts | 307° |
| 2026-04-20 21:48 | 47.75860 | 3.95625 | 38072 ft | 418 kts | 307° |
| 2026-04-20 21:48 | 47.79441 | 3.88850 | 38072 ft | 418 kts | 307° |
| 2026-04-20 21:49 | 47.83044 | 3.82017 | 38072 ft | 419 kts | 307° |
| 2026-04-20 21:49 | 47.86622 | 3.75210 | 38113 ft | 421 kts | 307° |
| 2026-04-20 21:50 | 47.90195 | 3.68399 | 38096 ft | 417 kts | 307° |
| 2026-04-20 21:50 | 47.93755 | 3.61614 | 38096 ft | 418 kts | 309° |
| 2026-04-20 21:51 | 47.98184 | 3.55933 | 38107 ft | 425 kts | 327° |
| 2026-04-20 21:51 | 48.03591 | 3.52356 | 38096 ft | 430 kts | 334° |
| 2026-04-20 21:52 | 48.09118 | 3.48935 | 38056 ft | 430 kts | 334° |
| 2026-04-20 21:52 | 48.14623 | 3.45512 | 38109 ft | 433 kts | 334° |
| 2026-04-20 21:53 | 48.20163 | 3.42058 | 38055 ft | 429 kts | 334° |
| 2026-04-20 21:53 | 48.25671 | 3.38613 | 38127 ft | 432 kts | 334° |
| 2026-04-20 21:54 | 48.31167 | 3.35169 | 38078 ft | 428 kts | 334° |
| 2026-04-20 21:54 | 48.36673 | 3.31707 | 38131 ft | 431 kts | 333° |
| 2026-04-20 21:55 | 48.42205 | 3.28223 | 38107 ft | 428 kts | 333° |
| 2026-04-20 21:55 | 48.47696 | 3.24756 | 38111 ft | 431 kts | 333° |
| 2026-04-20 21:56 | 48.53236 | 3.21250 | 38154 ft | 435 kts | 333° |
| 2026-04-20 21:56 | 48.58790 | 3.17727 | 38151 ft | 433 kts | 333° |
| 2026-04-20 21:57 | 48.64304 | 3.14220 | 38093 ft | 432 kts | 333° |
| 2026-04-20 21:57 | 48.69865 | 3.10674 | 38158 ft | 436 kts | 334° |
| 2026-04-20 21:58 | 48.75467 | 3.07096 | 38133 ft | 436 kts | 334° |
| 2026-04-20 21:58 | 48.81042 | 3.03526 | 38176 ft | 436 kts | 333° |
| 2026-04-20 21:59 | 48.86398 | 2.99509 | 38130 ft | 430 kts | 327° |
| 2026-04-20 21:59 | 48.91606 | 2.94978 | 38187 ft | 434 kts | 327° |
| 2026-04-20 22:00 | 48.96845 | 2.90405 | 38183 ft | 435 kts | 327° |
| 2026-04-20 22:00 | 49.02034 | 2.85858 | 38151 ft | 429 kts | 327° |
| 2026-04-20 22:01 | 49.07197 | 2.81317 | 38197 ft | 434 kts | 327° |
| 2026-04-20 22:01 | 49.12426 | 2.76709 | 38147 ft | 433 kts | 327° |
| 2026-04-20 22:02 | 49.17650 | 2.72092 | 38218 ft | 437 kts | 327° |
| 2026-04-20 22:02 | 49.22888 | 2.67454 | 38167 ft | 433 kts | 327° |
| 2026-04-20 22:03 | 49.28103 | 2.62823 | 38094 ft | 434 kts | 327° |
| 2026-04-20 22:03 | 49.33283 | 2.58212 | 38191 ft | 435 kts | 327° |
| 2026-04-20 22:04 | 49.38475 | 2.53578 | 38079 ft | 432 kts | 327° |
| 2026-04-20 22:04 | 49.41060 | 2.51267 | 38207 ft | 433 kts | 327° |
| 2026-04-20 22:04 | 49.43654 | 2.48943 | 38171 ft | 435 kts | 327° |
| 2026-04-20 22:05 | 49.48867 | 2.44270 | 38183 ft | 434 kts | 328° |
| 2026-04-20 22:05 | 49.54540 | 2.40824 | 38218 ft | 444 kts | 340° |
| 2026-04-20 22:06 | 49.60375 | 2.38144 | 38176 ft | 438 kts | 340° |
| 2026-04-20 22:06 | 49.66227 | 2.35465 | 38189 ft | 439 kts | 340° |
| 2026-04-20 22:07 | 49.72088 | 2.32788 | 38180 ft | 440 kts | 340° |
| 2026-04-20 22:07 | 49.77929 | 2.30118 | 38192 ft | 441 kts | 340° |
| 2026-04-20 22:08 | 49.83815 | 2.27422 | 38195 ft | 442 kts | 340° |
| 2026-04-20 22:08 | 49.89695 | 2.24723 | 38193 ft | 440 kts | 340° |
| 2026-04-20 22:09 | 49.95554 | 2.22026 | 38222 ft | 440 kts | 340° |
| 2026-04-20 22:09 | 50.01420 | 2.19320 | 38259 ft | 442 kts | 340° |
| 2026-04-20 22:10 | 50.07285 | 2.16604 | 38265 ft | 442 kts | 340° |
| 2026-04-20 22:10 | 50.13187 | 2.13863 | 38218 ft | 441 kts | 340° |
| 2026-04-20 22:11 | 50.19050 | 2.11137 | 38196 ft | 444 kts | 340° |
| 2026-04-20 22:11 | 50.24915 | 2.08405 | 38175 ft | 440 kts | 340° |
| 2026-04-20 22:12 | 50.30807 | 2.05652 | 38190 ft | 445 kts | 340° |
| 2026-04-20 22:12 | 50.36566 | 2.02182 | 38225 ft | 440 kts | 327° |
| 2026-04-20 22:13 | 50.41372 | 1.96446 | 38258 ft | 439 kts | 318° |
| 2026-04-20 22:13 | 50.46001 | 1.90329 | 38143 ft | 435 kts | 318° |
| 2026-04-20 22:14 | 50.50608 | 1.84126 | 38232 ft | 437 kts | 317° |
| 2026-04-20 22:14 | 50.55200 | 1.77871 | 38270 ft | 438 kts | 317° |
| 2026-04-20 22:15 | 50.59797 | 1.71574 | 38167 ft | 438 kts | 317° |
| 2026-04-20 22:15 | 50.64344 | 1.65316 | 38243 ft | 439 kts | 317° |
| 2026-04-20 22:16 | 50.68948 | 1.58956 | 38228 ft | 439 kts | 317° |
| 2026-04-20 22:16 | 50.73513 | 1.52631 | 38242 ft | 440 kts | 317° |
| 2026-04-20 22:17 | 50.78107 | 1.46248 | 38227 ft | 440 kts | 318° |
| 2026-04-20 22:17 | 50.82653 | 1.39921 | 38288 ft | 438 kts | 317° |
| 2026-04-20 22:18 | 50.87248 | 1.33520 | 38189 ft | 439 kts | 320° |
| 2026-04-20 22:18 | 50.92492 | 1.28543 | 38232 ft | 443 kts | 330° |
| 2026-04-20 22:19 | 50.97834 | 1.23805 | 38226 ft | 443 kts | 328° |
| 2026-04-20 22:19 | 51.03124 | 1.18909 | 38296 ft | 441 kts | 327° |
| 2026-04-20 22:20 | 51.08392 | 1.13942 | 38210 ft | 440 kts | 327° |
| 2026-04-20 22:20 | 51.13640 | 1.08966 | 38268 ft | 442 kts | 327° |
| 2026-04-20 22:21 | 51.18964 | 1.03903 | 38257 ft | 446 kts | 327° |
| 2026-04-20 22:21 | 51.24222 | 0.98864 | 38268 ft | 444 kts | 327° |
| 2026-04-20 22:22 | 51.29514 | 0.93715 | 38261 ft | 444 kts | 327° |
| 2026-04-20 22:22 | 51.34792 | 0.88640 | 38285 ft | 445 kts | 327° |
| 2026-04-20 22:23 | 51.40060 | 0.83526 | 38286 ft | 443 kts | 328° |
| 2026-04-20 22:23 | 51.45322 | 0.78390 | 38323 ft | 445 kts | 327° |
| 2026-04-20 22:24 | 51.50579 | 0.73230 | 38291 ft | 443 kts | 327° |
| 2026-04-20 22:24 | 51.55814 | 0.68089 | 38297 ft | 443 kts | 328° |
| 2026-04-20 22:25 | 51.61095 | 0.62901 | 38277 ft | 447 kts | 328° |
| 2026-04-20 22:25 | 51.66394 | 0.57739 | 38290 ft | 445 kts | 328° |
| 2026-04-20 22:26 | 51.71650 | 0.52583 | 38278 ft | 445 kts | 328° |
| 2026-04-20 22:26 | 51.76954 | 0.47346 | 38235 ft | 447 kts | 328° |
| 2026-04-20 22:27 | 51.84890 | 0.39437 | 38273 ft | 447 kts | 328° |
| 2026-04-20 22:27 | 51.90190 | 0.34168 | 38313 ft | 449 kts | 327° |
| 2026-04-20 22:28 | 51.95481 | 0.28903 | 38313 ft | 447 kts | 327° |
| 2026-04-20 22:28 | 52.00729 | 0.23654 | 38285 ft | 446 kts | 327° |
| 2026-04-20 22:29 | 52.06008 | 0.18350 | 38313 ft | 448 kts | 327° |
| 2026-04-20 22:29 | 52.11272 | 0.13009 | 38312 ft | 450 kts | 327° |
| 2026-04-20 22:30 | 52.16577 | 0.07610 | 38312 ft | 448 kts | 327° |
| 2026-04-20 22:30 | 52.21836 | 0.02266 | 38309 ft | 449 kts | 327° |
| 2026-04-20 22:31 | 52.27148 | -0.03137 | 38320 ft | 449 kts | 327° |
| 2026-04-20 22:31 | 52.32413 | -0.08504 | 38303 ft | 449 kts | 327° |
| 2026-04-20 22:32 | 52.37703 | -0.13909 | 38315 ft | 450 kts | 327° |
| 2026-04-20 22:32 | 52.42956 | -0.19294 | 38301 ft | 448 kts | 327° |
| 2026-04-20 22:33 | 52.48246 | -0.24731 | 38318 ft | 451 kts | 327° |
| 2026-04-20 22:33 | 52.53531 | -0.30177 | 38319 ft | 449 kts | 327° |
| 2026-04-20 22:34 | 52.58814 | -0.35637 | 38315 ft | 450 kts | 327° |
| 2026-04-20 22:34 | 52.64085 | -0.41102 | 38311 ft | 450 kts | 328° |
| 2026-04-20 22:35 | 52.69376 | -0.46602 | 38296 ft | 450 kts | 328° |
| 2026-04-20 22:35 | 52.74665 | -0.52111 | 38328 ft | 452 kts | 328° |
| 2026-04-20 22:36 | 52.79974 | -0.57666 | 38304 ft | 452 kts | 328° |
| 2026-04-20 22:36 | 52.85228 | -0.63162 | 38322 ft | 450 kts | 328° |
| 2026-04-20 22:37 | 52.90546 | -0.68729 | 38326 ft | 450 kts | 327° |
| 2026-04-20 22:37 | 52.95803 | -0.74265 | 38347 ft | 452 kts | 327° |
| 2026-04-20 22:38 | 53.01093 | -0.79858 | 38333 ft | 450 kts | 327° |
| 2026-04-20 22:38 | 53.06352 | -0.85437 | 38361 ft | 453 kts | 327° |
| 2026-04-20 22:39 | 53.11648 | -0.91098 | 38347 ft | 450 kts | 327° |
| 2026-04-20 22:39 | 53.16878 | -0.96701 | 38332 ft | 452 kts | 327° |
| 2026-04-20 22:40 | 53.22179 | -1.02385 | 38366 ft | 454 kts | 327° |
| 2026-04-20 22:40 | 53.27453 | -1.08027 | 38351 ft | 452 kts | 327° |
| 2026-04-20 22:41 | 53.32745 | -1.13667 | 38347 ft | 453 kts | 327° |
| 2026-04-20 22:41 | 53.38060 | -1.19384 | 38387 ft | 455 kts | 327° |
| 2026-04-20 22:42 | 53.43350 | -1.25106 | 38364 ft | 452 kts | 327° |
| 2026-04-20 22:42 | 53.48601 | -1.30809 | 38355 ft | 452 kts | 327° |
| 2026-04-20 22:43 | 53.53870 | -1.36570 | 38361 ft | 455 kts | 327° |
| 2026-04-20 22:43 | 53.59177 | -1.42398 | 38345 ft | 455 kts | 327° |
| 2026-04-20 22:44 | 53.64479 | -1.48195 | 38374 ft | 457 kts | 327° |
| 2026-04-20 22:44 | 53.69778 | -1.54004 | 38368 ft | 456 kts | 327° |
| 2026-04-20 22:45 | 53.74818 | -1.60374 | 38382 ft | 454 kts | 319° |
| 2026-04-20 22:45 | 53.79548 | -1.67500 | 38382 ft | 457 kts | 318° |
| 2026-04-20 22:46 | 53.84242 | -1.74699 | 38382 ft | 455 kts | 317° |
| 2026-04-20 22:46 | 53.88882 | -1.81888 | 38365 ft | 458 kts | 318° |
| 2026-04-20 22:47 | 53.93587 | -1.89219 | 38363 ft | 460 kts | 317° |
| 2026-04-20 22:47 | 53.98250 | -1.96513 | 38367 ft | 457 kts | 318° |
| 2026-04-20 22:48 | 54.03197 | -2.03214 | 38370 ft | 455 kts | 329° |
| 2026-04-20 22:48 | 54.08624 | -2.08706 | 38363 ft | 457 kts | 329° |
| 2026-04-20 22:49 | 54.14101 | -2.14236 | 38329 ft | 456 kts | 330° |
| 2026-04-20 22:49 | 54.19514 | -2.19699 | 38334 ft | 457 kts | 330° |
| 2026-04-20 22:50 | 54.24993 | -2.25238 | 38340 ft | 458 kts | 330° |
| 2026-04-20 22:50 | 54.30437 | -2.30753 | 38337 ft | 457 kts | 330° |
| 2026-04-20 22:51 | 54.35813 | -2.36225 | 38151 ft | 437 kts | 330° |
| 2026-04-20 22:51 | 54.38383 | -2.38903 | 37586 ft | 427 kts | 329° |
| 2026-04-20 22:51 | 54.40881 | -2.41487 | 37040 ft | 425 kts | 330° |
| 2026-04-20 22:52 | 54.43415 | -2.44098 | 36477 ft | 428 kts | 330° |
| 2026-04-20 22:52 | 54.45970 | -2.46723 | 35912 ft | 431 kts | 330° |
| 2026-04-20 22:52 | 54.48549 | -2.49372 | 35317 ft | 430 kts | 330° |
| 2026-04-20 22:52 | 54.51086 | -2.51980 | 34738 ft | 430 kts | 330° |
| 2026-04-20 22:53 | 54.53657 | -2.54623 | 34151 ft | 430 kts | 329° |
| 2026-04-20 22:53 | 54.56201 | -2.57243 | 33564 ft | 431 kts | 329° |
| 2026-04-20 22:53 | 54.58787 | -2.59911 | 33010 ft | 433 kts | 330° |
| 2026-04-20 22:53 | 54.61342 | -2.62549 | 32494 ft | 436 kts | 330° |
| 2026-04-20 22:54 | 54.63985 | -2.65281 | 31963 ft | 442 kts | 329° |
| 2026-04-20 22:54 | 54.66621 | -2.68010 | 31361 ft | 448 kts | 329° |
| 2026-04-20 22:54 | 54.69290 | -2.70779 | 30757 ft | 446 kts | 330° |
| 2026-04-20 22:54 | 54.71902 | -2.73491 | 30145 ft | 444 kts | 330° |
| 2026-04-20 22:55 | 54.74551 | -2.76242 | 29512 ft | 444 kts | 330° |
| 2026-04-20 22:55 | 54.77181 | -2.78985 | 28767 ft | 439 kts | 330° |
| 2026-04-20 22:55 | 54.79766 | -2.81680 | 28113 ft | 437 kts | 330° |
| 2026-04-20 22:55 | 54.82366 | -2.84397 | 27549 ft | 431 kts | 330° |
| 2026-04-20 22:56 | 54.84887 | -2.87036 | 26851 ft | 424 kts | 330° |
| 2026-04-20 22:56 | 54.87442 | -2.89474 | 26194 ft | 415 kts | 337° |
| 2026-04-20 22:56 | 54.90075 | -2.91410 | 25633 ft | 410 kts | 339° |
| 2026-04-20 22:56 | 54.92691 | -2.93323 | 25079 ft | 412 kts | 339° |
| 2026-04-20 22:57 | 54.95299 | -2.95225 | 24519 ft | 410 kts | 339° |
| 2026-04-20 22:57 | 54.97922 | -2.97135 | 23914 ft | 406 kts | 339° |
| 2026-04-20 22:57 | 55.00511 | -2.98995 | 23356 ft | 399 kts | 340° |
| 2026-04-20 22:57 | 55.03021 | -3.00789 | 22803 ft | 389 kts | 340° |
| 2026-04-20 22:58 | 55.05567 | -3.02626 | 22369 ft | 404 kts | 340° |
| 2026-04-20 22:58 | 55.08151 | -3.04497 | 21825 ft | 408 kts | 340° |
| 2026-04-20 22:58 | 55.10730 | -3.06378 | 21249 ft | 396 kts | 339° |
| 2026-04-20 22:58 | 55.13245 | -3.08214 | 20695 ft | 388 kts | 339° |
| 2026-04-20 22:59 | 55.15685 | -3.10140 | 20256 ft | 383 kts | 333° |
| 2026-04-20 22:59 | 55.17943 | -3.12713 | 19498 ft | 392 kts | 327° |
| 2026-04-20 22:59 | 55.20141 | -3.15418 | 18713 ft | 388 kts | 327° |
| 2026-04-20 22:59 | 55.22301 | -3.18082 | 18368 ft | 372 kts | 327° |
| 2026-04-20 23:00 | 55.24345 | -3.20621 | 17880 ft | 352 kts | 327° |
| 2026-04-20 23:00 | 55.26266 | -3.23018 | 17601 ft | 333 kts | 327° |
| 2026-04-20 23:00 | 55.28140 | -3.25369 | 16943 ft | 329 kts | 327° |
| 2026-04-20 23:00 | 55.29967 | -3.27657 | 16329 ft | 323 kts | 327° |
| 2026-04-20 23:01 | 55.31797 | -3.29954 | 15690 ft | 318 kts | 327° |
| 2026-04-20 23:01 | 55.33524 | -3.32126 | 15544 ft | 304 kts | 327° |
| 2026-04-20 23:01 | 55.35263 | -3.34324 | 15500 ft | 318 kts | 327° |
| 2026-04-20 23:01 | 55.37107 | -3.36640 | 15109 ft | 328 kts | 327° |
| 2026-04-20 23:02 | 55.38934 | -3.38928 | 14587 ft | 324 kts | 327° |
| 2026-04-20 23:02 | 55.40779 | -3.41235 | 14062 ft | 323 kts | 327° |
| 2026-04-20 23:02 | 55.42619 | -3.43446 | 13544 ft | 321 kts | 331° |
| 2026-04-20 23:02 | 55.44528 | -3.45392 | 12986 ft | 321 kts | 333° |
| 2026-04-20 23:03 | 55.46457 | -3.47338 | 12341 ft | 323 kts | 333° |
| 2026-04-20 23:03 | 55.48417 | -3.49322 | 11691 ft | 324 kts | 333° |
| 2026-04-20 23:03 | 55.50359 | -3.51288 | 10996 ft | 320 kts | 333° |
| 2026-04-20 23:03 | 55.52254 | -3.53211 | 10322 ft | 308 kts | 333° |
| 2026-04-20 23:04 | 55.54053 | -3.55043 | 9686 ft | 296 kts | 333° |
| 2026-04-20 23:04 | 55.55794 | -3.56831 | 9035 ft | 285 kts | 333° |
| 2026-04-20 23:04 | 55.57478 | -3.58573 | 8453 ft | 286 kts | 333° |
| 2026-04-20 23:04 | 55.59196 | -3.60367 | 7746 ft | 283 kts | 333° |
| 2026-04-20 23:05 | 55.60875 | -3.62128 | 7114 ft | 281 kts | 333° |
| 2026-04-20 23:05 | 55.62527 | -3.63870 | 6466 ft | 279 kts | 333° |
| 2026-04-20 23:05 | 55.64189 | -3.65635 | 5810 ft | 278 kts | 332° |
| 2026-04-20 23:05 | 55.65822 | -3.67384 | 5334 ft | 267 kts | 332° |
| 2026-04-20 23:06 | 55.67377 | -3.69066 | 4883 ft | 258 kts | 332° |
| 2026-04-20 23:06 | 55.68853 | -3.70668 | 4424 ft | 247 kts | 336° |
| 2026-04-20 23:06 | 55.70372 | -3.71894 | 4013 ft | 233 kts | 343° |
| 2026-04-20 23:06 | 55.71819 | -3.72913 | 3994 ft | 213 kts | 345° |
| 2026-04-20 23:07 | 55.73163 | -3.73726 | 3965 ft | 195 kts | 348° |
| 2026-04-20 23:07 | 55.74432 | -3.74011 | 4022 ft | 182 kts | 8° |
| 2026-04-20 23:07 | 55.75721 | -3.73886 | 3980 ft | 189 kts | 9° |
| 2026-04-20 23:07 | 55.77027 | -3.73754 | 3952 ft | 183 kts | 9° |
| 2026-04-20 23:08 | 55.78239 | -3.73650 | 3957 ft | 167 kts | 9° |
| 2026-04-20 23:08 | 55.79365 | -3.73573 | 4016 ft | 162 kts | 9° |
| 2026-04-20 23:08 | 55.80522 | -3.73490 | 4006 ft | 167 kts | 9° |
| 2026-04-20 23:08 | 55.81609 | -3.73069 | 3992 ft | 156 kts | 35° |
| 2026-04-20 23:09 | 55.82538 | -3.72073 | 3986 ft | 154 kts | 38° |
| 2026-04-20 23:09 | 55.83389 | -3.70963 | 3966 ft | 148 kts | 56° |
| 2026-04-20 23:09 | 55.83917 | -3.69514 | 4010 ft | 127 kts | 62° |
| 2026-04-20 23:09 | 55.84349 | -3.68308 | 3940 ft | 109 kts | 62° |
| 2026-04-20 23:10 | 55.84756 | -3.67149 | 3886 ft | 116 kts | 62° |
| 2026-04-20 23:10 | 55.85185 | -3.65922 | 3734 ft | 115 kts | 62° |
| 2026-04-20 23:10 | 55.85602 | -3.64731 | 3566 ft | 112 kts | 62° |
| 2026-04-20 23:10 | 55.86008 | -3.63560 | 3422 ft | 112 kts | 62° |
| 2026-04-20 23:11 | 55.86422 | -3.62368 | 3270 ft | 112 kts | 63° |
| 2026-04-20 23:11 | 55.86825 | -3.61199 | 3125 ft | 112 kts | 63° |
| 2026-04-20 23:11 | 55.87241 | -3.59991 | 2980 ft | 114 kts | 63° |
| 2026-04-20 23:11 | 55.87647 | -3.58808 | 2821 ft | 113 kts | 63° |
| 2026-04-20 23:12 | 55.88061 | -3.57604 | 2667 ft | 113 kts | 63° |
| 2026-04-20 23:12 | 55.88468 | -3.56417 | 2511 ft | 112 kts | 63° |
| 2026-04-20 23:12 | 55.88872 | -3.55239 | 2355 ft | 112 kts | 62° |
| 2026-04-20 23:12 | 55.89283 | -3.54035 | 2190 ft | 113 kts | 62° |
| 2026-04-20 23:13 | 55.89693 | -3.52837 | 2029 ft | 113 kts | 62° |
| 2026-04-20 23:13 | 55.90096 | -3.51657 | 1864 ft | 112 kts | 62° |
| 2026-04-20 23:13 | 55.90498 | -3.50480 | 1709 ft | 112 kts | 62° |
| 2026-04-20 23:13 | 55.90903 | -3.49292 | 1549 ft | 113 kts | 61° |
| 2026-04-20 23:14 | 55.91314 | -3.48083 | 1387 ft | 114 kts | 61° |
| 2026-04-20 23:14 | 55.91730 | -3.46857 | 1234 ft | 115 kts | 61° |
| 2026-04-20 23:14 | 55.92142 | -3.45643 | 1069 ft | 116 kts | 61° |
| 2026-04-20 23:14 | 55.92562 | -3.44408 | 909 ft | 117 kts | 60° |
| 2026-04-20 23:15 | 55.92983 | -3.43166 | 745 ft | 118 kts | 60° |
| 2026-04-20 23:15 | 55.93415 | -3.41918 | 576 ft | 120 kts | 60° |
| 2026-04-20 23:15 | 55.93850 | -3.40640 | 404 ft | 120 kts | 60° |
| 2026-04-20 23:15 | 55.94281 | -3.39357 | 239 ft | 121 kts | 60° |
| 2026-04-20 23:16 | 55.94722 | -3.38063 | 135 ft | 122 kts | 59° |
| 2026-04-20 23:16 | 55.95121 | -3.36881 | 102 ft | 91 kts | 59° |
| 2026-04-20 23:16 | 55.95371 | -3.36151 | 105 ft | 46 kts | 58° |